Subic Bay International Airport
RPLB : now visible

Airfield :











YOU CAN JOIN US ON...

 
LOGIN :

Register | Disclaimer

   EN    FR    IT 

 









Legend :    VFR   Marginal VFR   IFR   Intensive IFR   Very Intensive IFR
Visi :
Ceiling :
>= 8 km
>= 3000ft
5 to 8 km
1000 to 3000 ft
1500m to 5 km
500 to 1000 ft
800 to 1500m
200 to 500 ft
< 800m
< 200 ft
Symbols :   Thunderstorms  Fog  Heavy snow  Heavy precipitations  Wind > 20 kt






- Airport Elevation : 64 ft
- IATA code : SFS


RPLB - Subic Bay International

CURRENT METAR :
  • 280300Z 22013KT 9999 SCT019 BKN300 31/27 Q1008 NOSIG RMK A2977

EXPIRED METARs :
  • 280200Z 22010KT 9999 BKN019 32/28 Q1008 NOSIG RMK A2977
  • 280100Z 20004KT 170V230 9999 SCT019 BKN300 31/27 Q1009 NOSIG RMK A2980
  • 280000Z 04004KT 010V070 9999 FEW018 SCT080 BKN300 30/27 Q1009 NOSIG RMK A2980
  • 272300Z VRB02KT 9999 SCT018 BKN080 28/26 Q1008 NOSIG RMK A2977

TAF TAF RPLB
Valid from the 28 at 00:00 until the 29 at 00:00 UTC


272300Z 2800/2824 21008KT 9999 FEW020 SCT080 BKN300 TX32/2806Z TN26/2820Z
TEMPO 2800/2806 22012G22KT 7000 -TSRA FEW016CB SCT018 BKN080
RPHI FIR / Asia



MET'MAP, your aeronautical weather chart ! - Copyright ORBIFLY December 2007 - Disclaimer

ORBIFLY MET'MAP TEAM :

Programming & Development : Alexandra Zaïnal
Original concept : Baudouin d'Aumeries
Technical & hardware support : Manuel Goepfert
Assistance : Marc-Olivier Méhu




SOURCES & CREDITS :

   NOAA       Earth
Advisory